Time;durP1;ratioP1;P1;durP2;ratioP2;P2;SDS_P1;SDS_P2;PMS_P1;PMS_P2;Temp;Humidity;BMP_temperature;BMP_pressure;BME280_temperature;BME280_humidity;BME280_pressure;Samples;Min_cycle;Max_cycle;Signal;HPM_P1;HPM_P2
2023/05/03 00:00:07;;;;;;;9.93;3.13;;;;;;;4.03;100.00;102030.69;5078216;28;20119;-70
2023/05/03 00:02:38;;;;;;;9.18;2.55;;;;;;;3.97;100.00;102023.09;5043639;28;20076;-70
2023/05/03 00:05:06;;;;;;;12.32;3.38;;;;;;;3.89;100.00;102044.69;5047537;28;20040;-70
2023/05/03 00:07:32;;;;;;;8.10;3.28;;;;;;;3.90;100.00;102051.66;5047937;28;20104;-73
2023/05/03 00:09:58;;;;;;;9.03;2.63;;;;;;;3.87;100.00;102053.63;5032968;28;20082;-69
2023/05/03 00:12:23;;;;;;;8.80;2.72;;;;;;;3.91;100.00;102057.78;5042939;28;20060;-70
2023/05/03 00:14:49;;;;;;;5.60;2.90;;;;;;;3.83;100.00;102047.66;5044931;28;20068;-71
2023/05/03 00:17:14;;;;;;;14.67;3.63;;;;;;;3.88;100.00;102058.81;5031173;28;20488;-71
2023/05/03 00:19:39;;;;;;;9.03;3.00;;;;;;;3.90;100.00;102050.81;5041086;28;20380;-69
2023/05/03 00:22:06;;;;;;;8.47;3.23;;;;;;;3.88;100.00;102058.81;5040116;28;20040;-70
2023/05/03 00:24:31;;;;;;;13.93;3.20;;;;;;;3.81;100.00;102053.00;5034345;28;20401;-72
2023/05/03 00:26:56;;;;;;;8.23;3.30;;;;;;;3.75;100.00;102056.03;5039506;28;20140;-72
2023/05/03 00:29:22;;;;;;;11.77;3.47;;;;;;;3.78;100.00;102078.78;5042002;28;20040;-73
2023/05/03 00:31:47;;;;;;;6.03;2.97;;;;;;;3.74;100.00;102074.59;5041934;28;20499;-73
2023/05/03 00:34:13;;;;;;;7.70;3.08;;;;;;;3.68;100.00;102073.16;5052248;28;20033;-70
2023/05/03 00:36:39;;;;;;;8.57;3.00;;;;;;;3.62;100.00;102076.13;5051095;28;20040;-69
2023/05/03 00:39:04;;;;;;;14.20;3.20;;;;;;;3.62;100.00;102097.25;5050982;28;20458;-70
2023/05/03 00:41:30;;;;;;;7.07;3.05;;;;;;;3.68;100.00;102102.22;5050934;28;20041;-73
2023/05/03 00:43:55;;;;;;;10.10;3.20;;;;;;;3.63;100.00;102096.34;5050532;28;20029;-73
2023/05/03 00:46:20;;;;;;;9.33;3.53;;;;;;;3.62;100.00;102094.63;5052229;28;20033;-69
2023/05/03 00:48:48;;;;;;;13.20;3.83;;;;;;;3.59;100.00;102089.50;5042671;28;20079;-70
2023/05/03 00:51:14;;;;;;;12.73;3.50;;;;;;;3.51;100.00;102081.13;5044116;28;20458;-71
2023/05/03 00:53:41;;;;;;;8.20;3.17;;;;;;;3.43;100.00;102088.63;5033896;28;20395;-70
2023/05/03 00:56:08;;;;;;;8.20;3.33;;;;;;;3.40;100.00;102099.38;5042747;28;20032;-72
2023/05/03 00:58:38;;;;;;;;;;;;;;;3.48;100.00;102113.00;5051099;28;20048;-69
2023/05/03 01:01:07;;;;;;;15.05;4.82;;;;;;;3.28;100.00;102099.09;5067371;28;20356;-69
2023/05/03 01:03:35;;;;;;;8.75;3.80;;;;;;;3.34;100.00;102117.22;5041982;28;20039;-71
2023/05/03 01:06:12;;;;;;;12.55;3.35;;;;;;;3.41;100.00;102122.19;5049598;28;20198;-69
2023/05/03 01:08:46;;;;;;;9.15;3.90;;;;;;;3.33;100.00;102110.25;5046629;28;20068;-71
2023/05/03 01:11:20;;;;;;;12.90;3.67;;;;;;;3.36;100.00;102122.44;5059523;28;20036;-71
2023/05/03 01:13:57;;;;;;;14.52;3.67;;;;;;;3.23;100.00;102102.91;5033330;28;20036;-71
2023/05/03 01:16:29;;;;;;;14.63;3.35;;;;;;;3.17;100.00;102119.94;5042590;28;20383;-69
2023/05/03 01:19:00;;;;;;;11.52;3.92;;;;;;;3.29;100.00;102129.81;5043411;28;20419;-70
2023/05/03 01:21:28;;;;;;;13.02;3.42;;;;;;;3.28;100.00;102119.38;5067104;28;20098;-71
2023/05/03 01:24:02;;;;;;;15.65;4.47;;;;;;;3.21;100.00;102123.22;5041301;28;20033;-73
2023/05/03 01:26:28;;;;;;;12.32;4.53;;;;;;;3.21;100.00;102126.75;5061734;28;20115;-70
2023/05/03 01:28:54;;;;;;;10.02;3.58;;;;;;;3.18;100.00;102129.53;5050191;28;20472;-72
2023/05/03 01:31:58;;;;;;;13.60;5.05;;;;;;;3.27;100.00;102130.84;5041474;28;20547;-69
2023/05/03 01:35:15;;;;;;;17.25;4.65;;;;;;;3.16;100.00;102131.41;5051203;28;20037;-74
2023/05/03 01:37:44;;;;;;;9.75;4.22;;;;;;;3.14;100.00;102133.28;5012463;28;20037;-70
2023/05/03 01:40:12;;;;;;;17.38;3.67;;;;;;;3.15;100.00;102145.53;5025729;28;20034;-69
2023/05/03 01:42:40;;;;;;;9.07;4.05;;;;;;;3.08;100.00;102145.00;5022502;28;20044;-70
2023/05/03 01:45:06;;;;;;;21.40;5.20;;;;;;;3.03;100.00;102148.81;5057700;28;20029;-73
2023/05/03 01:47:32;;;;;;;9.32;3.50;;;;;;;3.01;100.00;102151.53;5041928;28;20068;-73
2023/05/03 01:49:58;;;;;;;7.38;3.13;;;;;;;3.12;100.00;102161.53;5041908;28;20072;-74
2023/05/03 01:52:23;;;;;;;17.40;5.77;;;;;;;3.01;100.00;102151.53;5044054;28;20033;-70
2023/05/03 01:54:48;;;;;;;11.20;3.93;;;;;;;3.06;100.00;102159.22;5048370;28;20443;-69
2023/05/03 01:57:14;;;;;;;18.80;5.47;;;;;;;3.11;100.00;102165.09;5045717;28;20492;-72
2023/05/03 01:59:40;;;;;;;;;;;;;;;3.04;100.00;102159.28;5038472;28;20125;-73
2023/05/03 02:02:05;;;;;;;14.35;4.95;;;;;;;2.90;100.00;102138.91;5028873;28;20011;-69
2023/05/03 02:04:31;;;;;;;;;;;;;;;2.87;100.00;102149.59;5046585;28;20037;-70
2023/05/03 02:06:57;;;;;;;8.23;3.72;;;;;;;2.88;100.00;102155.72;5032699;28;19996;-70
2023/05/03 02:09:23;;;;;;;15.13;3.97;;;;;;;2.92;100.00;102168.69;5032858;28;20036;-73
2023/05/03 02:11:48;;;;;;;;;;;;;;;2.95;100.00;102168.53;5049850;28;20048;-73
2023/05/03 02:14:14;;;;;;;15.30;4.40;;;;;;;2.95;100.00;102167.69;5075428;28;20011;-69
2023/05/03 02:16:39;;;;;;;14.87;3.73;;;;;;;2.91;100.00;102169.63;5042382;28;20034;-70
2023/05/03 02:19:06;;;;;;;16.50;4.70;;;;;;;3.01;100.00;102171.78;5045942;28;20017;-70
2023/05/03 02:21:32;;;;;;;9.32;3.28;;;;;;;3.07;100.00;102176.78;5045806;28;20029;-69
2023/05/03 02:23:58;;;;;;;15.25;4.10;;;;;;;3.00;100.00;102170.06;5032480;28;20040;-69
2023/05/03 02:26:24;;;;;;;10.43;4.80;;;;;;;3.02;100.00;102169.09;5032699;28;20483;-69
2023/05/03 02:28:49;;;;;;;14.32;4.50;;;;;;;2.99;100.00;102168.38;5040863;28;20048;-71
2023/05/03 02:31:14;;;;;;;12.07;4.47;;;;;;;2.90;100.00;102159.13;5050263;28;20090;-72
2023/05/03 02:33:41;;;;;;;11.77;3.83;;;;;;;2.88;100.00;102172.44;5040407;28;20029;-74
2023/05/03 02:36:07;;;;;;;19.40;4.43;;;;;;;2.90;100.00;102174.97;5045580;28;20520;-71
2023/05/03 02:38:32;;;;;;;12.73;4.57;;;;;;;2.78;100.00;102168.53;5036416;28;20039;-68
2023/05/03 02:40:58;;;;;;;13.68;5.25;;;;;;;2.67;100.00;102168.19;5046658;28;20033;-71
2023/05/03 02:43:24;;;;;;;;;;;;;;;2.70;100.00;102175.97;5042936;28;20028;-69
2023/05/03 02:45:49;;;;;;;16.60;4.65;;;;;;;2.62;100.00;102172.84;5064046;28;19958;-72
2023/05/03 02:48:15;;;;;;;15.20;4.22;;;;;;;2.64;100.00;102178.91;5033832;28;20116;-69
2023/05/03 02:50:41;;;;;;;17.42;5.18;;;;;;;2.67;100.00;102189.31;5032232;28;20110;-72
2023/05/03 02:53:06;;;;;;;10.57;4.75;;;;;;;2.62;100.00;102200.09;5056325;28;20094;-68
2023/05/03 02:55:33;;;;;;;22.95;7.07;;;;;;;2.75;100.00;102213.53;5048809;28;20488;-69
2023/05/03 02:57:58;;;;;;;13.30;5.07;;;;;;;2.77;100.00;102216.94;5038327;28;20041;-69
2023/05/03 03:00:23;;;;;;;12.00;4.57;;;;;;;2.73;100.00;102207.47;5036811;28;20041;-69
2023/05/03 03:02:49;;;;;;;13.87;4.80;;;;;;;2.76;100.00;102209.94;5038370;28;20399;-72
2023/05/03 03:05:15;;;;;;;9.65;4.63;;;;;;;2.78;100.00;102213.38;5048249;28;20043;-69
2023/05/03 03:07:46;;;;;;;14.93;3.70;;;;;;;2.76;100.00;102212.59;5057526;28;20128;-71
2023/05/03 03:10:11;;;;;;;;;;;;;;;2.70;100.00;102205.84;5040776;28;20036;-71
2023/05/03 03:12:37;;;;;;;17.50;4.15;;;;;;;2.74;100.00;102202.13;5040520;28;19913;-69
2023/05/03 03:15:06;;;;;;;23.88;5.65;;;;;;;2.68;100.00;102199.78;5036806;28;20476;-71
2023/05/03 03:17:32;;;;;;;14.00;5.38;;;;;;;2.59;100.00;102180.94;5036874;28;20033;-69
2023/05/03 03:19:57;;;;;;;21.20;4.93;;;;;;;2.50;100.00;102187.50;5061650;28;20082;-73
2023/05/03 03:22:24;;;;;;;17.30;5.07;;;;;;;2.50;100.00;102195.41;5029625;28;20034;-72
2023/05/03 03:24:50;;;;;;;15.57;4.82;;;;;;;2.49;100.00;102199.84;5037549;28;20642;-71
2023/05/03 03:27:15;;;;;;;9.80;4.35;;;;;;;2.44;100.00;102195.72;5040279;28;20196;-71
2023/05/03 03:29:41;;;;;;;15.23;5.03;;;;;;;2.44;100.00;102198.38;5047969;28;20045;-72
2023/05/03 03:32:09;;;;;;;13.40;4.13;;;;;;;2.41;100.00;102198.50;5047478;28;20123;-70
2023/05/03 03:34:34;;;;;;;15.40;3.88;;;;;;;2.36;100.00;102196.06;5040839;28;20552;-69
2023/05/03 03:37:00;;;;;;;10.45;4.95;;;;;;;2.30;100.00;102196.38;5039431;28;20380;-69
2023/05/03 03:39:27;;;;;;;10.43;5.45;;;;;;;2.20;100.00;102184.56;5048224;28;20032;-72
2023/05/03 03:41:52;;;;;;;20.17;4.70;;;;;;;2.26;100.00;102189.56;5038450;28;20033;-68
2023/05/03 03:44:17;;;;;;;11.40;4.60;;;;;;;2.22;100.00;102185.34;5041337;28;20025;-72
2023/05/03 03:46:43;;;;;;;12.23;4.80;;;;;;;2.11;100.00;102183.25;5023256;28;20060;-70
2023/05/03 03:49:08;;;;;;;9.50;4.88;;;;;;;2.06;100.00;102183.47;5023406;28;20604;-68
2023/05/03 03:51:34;;;;;;;13.52;4.95;;;;;;;2.03;100.00;102193.28;5048034;28;20032;-69
2023/05/03 03:54:00;;;;;;;13.48;5.07;;;;;;;2.01;100.00;102198.59;5045128;28;20110;-69
2023/05/03 03:56:30;;;;;;;12.75;4.53;;;;;;;1.99;100.00;102196.97;5043529;28;20040;-68
2023/05/03 03:58:56;;;;;;;24.50;5.95;;;;;;;2.09;100.00;102204.38;5013240;28;20037;-69
2023/05/03 04:01:22;;;;;;;22.30;6.25;;;;;;;2.08;100.00;102205.31;5058947;28;20510;-68
2023/05/03 04:03:48;;;;;;;10.45;4.57;;;;;;;2.14;100.00;102212.06;5062972;28;20040;-72
2023/05/03 04:06:13;;;;;;;12.57;5.80;;;;;;;2.15;100.00;102218.19;5061297;28;20175;-68
2023/05/03 04:08:39;;;;;;;12.50;5.73;;;;;;;2.16;100.00;102215.50;5051826;28;20025;-68
2023/05/03 04:11:10;;;;;;;14.73;4.80;;;;;;;2.17;100.00;102211.06;5032174;28;20466;-69
2023/05/03 04:13:36;;;;;;;14.98;5.50;;;;;;;2.18;100.00;102224.19;5041037;28;20029;-71
2023/05/03 04:16:02;;;;;;;21.20;4.82;;;;;;;2.27;100.00;102233.41;5051415;28;20087;-68
2023/05/03 04:18:27;;;;;;;13.20;5.28;;;;;;;2.40;100.00;102233.69;5051244;28;20039;-68
2023/05/03 04:20:55;;;;;;;18.15;5.20;;;;;;;2.53;100.00;102237.47;5051323;28;20060;-68
2023/05/03 04:23:21;;;;;;;14.18;5.43;;;;;;;2.57;100.00;102244.28;5045657;28;20053;-68
2023/05/03 04:25:47;;;;;;;18.85;6.07;;;;;;;2.63;100.00;102238.72;5048070;28;20123;-72
2023/05/03 04:28:14;;;;;;;11.88;5.55;;;;;;;2.74;100.00;102246.13;5039866;28;20040;-72
2023/05/03 04:30:46;;;;;;;13.48;5.38;;;;;;;2.86;100.00;102244.66;5046994;28;20414;-75
2023/05/03 04:33:14;;;;;;;16.58;5.97;;;;;;;2.87;100.00;102239.28;5052468;28;20086;-68
2023/05/03 04:35:40;;;;;;;17.88;5.47;;;;;;;2.95;100.00;102246.84;5051219;28;20045;-72
2023/05/03 04:38:09;;;;;;;13.38;5.55;;;;;;;3.10;100.00;102251.34;5035013;28;20394;-69
2023/05/03 04:40:34;;;;;;;18.37;6.33;;;;;;;3.29;100.00;102267.09;5051284;28;20127;-71
2023/05/03 04:43:05;;;;;;;25.80;5.10;;;;;;;3.47;100.00;102267.09;5034328;28;20299;-72
2023/05/03 04:45:33;;;;;;;14.07;5.35;;;;;;;3.60;100.00;102254.94;5051053;28;20294;-69
2023/05/03 04:47:59;;;;;;;12.45;4.88;;;;;;;3.79;100.00;102260.97;5040567;28;20029;-68
2023/05/03 04:50:24;;;;;;;13.73;5.43;;;;;;;3.94;100.00;102259.31;5061863;28;20450;-68
2023/05/03 04:52:50;;;;;;;19.92;4.60;;;;;;;4.04;100.00;102243.78;5024247;28;20582;-69
2023/05/03 04:55:16;;;;;;;;;;;;;;;4.20;100.00;102233.25;5043919;28;20040;-70
2023/05/03 04:57:42;;;;;;;12.95;4.60;;;;;;;4.36;100.00;102223.53;5050481;28;20307;-78
2023/05/03 05:00:11;;;;;;;10.65;5.20;;;;;;;4.60;100.00;102201.91;5030797;28;20033;-69
2023/05/03 05:02:39;;;;;;;9.82;4.38;;;;;;;4.74;100.00;102185.22;5038215;28;20032;-71
2023/05/03 05:05:05;;;;;;;13.18;6.82;;;;;;;5.00;100.00;102189.84;5042223;28;20040;-69
2023/05/03 05:07:31;;;;;;;13.38;4.50;;;;;;;5.43;100.00;102184.63;5043726;28;20095;-69
2023/05/03 05:09:57;;;;;;;14.60;4.53;;;;;;;6.09;100.00;102153.16;5048628;28;20033;-72
2023/05/03 05:12:23;;;;;;;9.30;3.87;;;;;;;6.82;100.00;102086.38;5050134;28;20434;-71
2023/05/03 05:14:48;;;;;;;9.73;3.10;;;;;;;7.88;100.00;102023.03;5041639;28;20546;-70
2023/05/03 05:17:13;;;;;;;13.07;4.30;;;;;;;8.62;100.00;101857.78;5038057;28;20045;-69
2023/05/03 05:19:40;;;;;;;11.07;3.60;;;;;;;9.25;100.00;101621.66;5038500;28;20037;-70
2023/05/03 05:22:06;;;;;;;8.02;2.88;;;;;;;9.56;100.00;101356.91;5049616;28;20028;-70
2023/05/03 05:24:40;;;;;;;10.45;3.22;;;;;;;10.45;100.00;101183.94;5034425;28;20033;-72
2023/05/03 05:27:06;;;;;;;10.60;2.38;;;;;;;10.84;100.00;101034.06;5042910;28;20044;-72
2023/05/03 05:29:32;;;;;;;7.90;2.70;;;;;;;11.53;100.00;100837.03;5034222;28;20041;-69
2023/05/03 05:31:58;;;;;;;6.95;3.55;;;;;;;10.32;100.00;100385.53;5033613;28;20021;-72
2023/05/03 05:34:25;;;;;;;10.95;3.40;;;;;;;9.99;100.00;100496.72;5050504;28;20507;-69
2023/05/03 05:36:51;;;;;;;7.55;3.08;;;;;;;10.33;100.00;100640.72;5067257;28;20025;-72
2023/05/03 05:39:18;;;;;;;9.23;2.80;;;;;;;11.64;100.00;100666.56;5066954;28;20036;-69
2023/05/03 05:41:44;;;;;;;8.23;3.63;;;;;;;11.72;100.00;100354.47;5049385;28;20094;-72
2023/05/03 05:44:09;;;;;;;8.10;2.83;;;;;;;12.13;98.47;100366.72;5049409;28;20033;-69
2023/05/03 05:46:35;;;;;;;10.00;2.40;;;;;;;11.67;93.17;99949.59;5049831;28;20519;-71
2023/05/03 05:49:00;;;;;;;6.07;2.47;;;;;;;11.29;91.57;99891.81;5032578;28;20839;-71
2023/05/03 05:51:26;;;;;;;7.68;2.58;;;;;;;11.89;91.52;100129.66;5049625;28;20043;-72
2023/05/03 05:53:53;;;;;;;6.05;2.40;;;;;;;12.15;90.49;100177.34;5041084;28;20029;-73
2023/05/03 05:56:19;;;;;;;5.68;2.50;;;;;;;12.76;87.01;100048.44;5049938;28;20167;-73
2023/05/03 05:58:44;;;;;;;7.30;2.30;;;;;;;13.57;84.67;100085.50;5049284;28;20041;-72
2023/05/03 06:01:09;;;;;;;8.93;2.10;;;;;;;12.18;82.59;99664.03;5049765;28;20029;-71
2023/05/03 06:03:36;;;;;;;7.35;2.45;;;;;;;12.42;83.94;100015.19;5032496;28;20041;-73
2023/05/03 06:06:04;;;;;;;7.43;2.25;;;;;;;13.10;81.91;100008.28;5066521;28;20029;-73
2023/05/03 06:08:30;;;;;;;8.17;3.00;;;;;;;12.75;81.47;99972.59;5049687;28;20033;-72
2023/05/03 06:10:55;;;;;;;5.43;2.30;;;;;;;12.48;80.37;99842.25;5032701;28;20329;-72
2023/05/03 06:13:22;;;;;;;7.05;2.53;;;;;;;12.66;79.03;99779.09;5048709;28;20024;-72
2023/05/03 06:15:49;;;;;;;3.38;1.88;;;;;;;12.16;78.45;99761.56;5049626;28;20029;-72
2023/05/03 06:18:14;;;;;;;5.93;2.20;;;;;;;11.29;78.82;99648.66;5049615;28;20476;-71
2023/05/03 06:20:40;;;;;;;8.00;2.30;;;;;;;11.55;80.07;100021.44;5066208;28;20033;-71
2023/05/03 06:23:05;;;;;;;7.23;2.13;;;;;;;11.88;79.48;100037.09;5048455;28;20295;-72
2023/05/03 06:25:30;;;;;;;7.77;2.47;;;;;;;11.82;78.88;99964.59;5049180;28;20037;-72
2023/05/03 06:27:56;;;;;;;6.28;1.90;;;;;;;12.08;78.60;100083.63;5048332;28;20094;-72
2023/05/03 06:30:27;;;;;;;8.68;2.13;;;;;;;12.17;77.12;99975.44;5057868;28;20040;-72
2023/05/03 06:32:53;;;;;;;9.98;2.80;;;;;;;11.73;78.09;100005.81;5055373;28;20091;-72
2023/05/03 06:35:20;;;;;;;6.15;2.83;;;;;;;12.22;77.30;100098.81;5059211;28;20430;-71
2023/05/03 06:37:46;;;;;;;7.05;2.25;;;;;;;12.28;76.77;100051.72;5048814;28;20032;-72
2023/05/03 06:40:12;;;;;;;7.80;2.22;;;;;;;12.76;76.99;100215.34;5048974;28;20090;-72
2023/05/03 06:42:37;;;;;;;10.43;2.60;;;;;;;13.10;75.14;100091.38;5048271;28;20037;-72
2023/05/03 06:45:20;;;;;;;8.85;2.42;;;;;;;13.03;74.12;99956.50;5048593;28;20045;-69
2023/05/03 06:47:46;;;;;;;9.07;2.27;;;;;;;11.77;74.90;99816.41;5048410;28;20110;-72
2023/05/03 06:50:12;;;;;;;7.33;2.10;;;;;;;12.23;76.78;100255.69;5048793;28;20115;-71
2023/05/03 06:52:38;;;;;;;8.85;1.95;;;;;;;12.04;77.35;100341.88;5048291;28;20568;-72
2023/05/03 06:55:03;;;;;;;12.33;2.13;;;;;;;10.94;78.24;100149.81;5048278;28;20116;-70
2023/05/03 06:57:29;;;;;;;6.68;2.33;;;;;;;10.04;80.34;100241.00;5048596;28;20041;-72
2023/05/03 06:59:54;;;;;;;11.80;2.67;;;;;;;10.87;82.53;100694.53;5048432;28;20079;-72
2023/05/03 07:02:20;;;;;;;11.93;2.10;;;;;;;10.95;81.00;100570.81;5048130;28;20434;-72
2023/05/03 07:04:45;;;;;;;8.45;2.20;;;;;;;11.29;82.29;100773.72;5048211;28;20068;-71
2023/05/03 07:07:11;;;;;;;11.37;2.33;;;;;;;11.61;79.33;100475.19;5048408;28;20045;-71
2023/05/03 07:09:36;;;;;;;8.60;1.93;;;;;;;10.84;80.38;100418.94;5049840;28;20041;-72
2023/05/03 07:12:02;;;;;;;5.17;2.50;;;;;;;10.25;81.86;100488.56;5039878;28;20041;-70
2023/05/03 07:14:27;;;;;;;4.40;1.95;;;;;;;9.63;84.08;100584.94;5048205;28;20095;-72
2023/05/03 07:16:52;;;;;;;9.00;2.20;;;;;;;9.33;85.21;100695.53;5049633;28;20036;-70
2023/05/03 07:19:18;;;;;;;8.00;2.33;;;;;;;9.61;86.27;100864.16;5031889;28;20037;-71
2023/05/03 07:21:43;;;;;;;7.73;2.50;;;;;;;9.37;86.42;100798.16;5049339;28;20033;-72
2023/05/03 07:24:11;;;;;;;8.50;2.10;;;;;;;9.60;86.18;100858.00;5047984;28;20037;-70
2023/05/03 07:26:37;;;;;;;9.30;2.30;;;;;;;10.15;86.01;100991.13;5049620;28;20044;-72
2023/05/03 07:29:02;;;;;;;8.15;2.20;;;;;;;9.94;86.25;100919.41;5056563;28;20044;-72
2023/05/03 07:31:28;;;;;;;7.20;2.30;;;;;;;10.19;86.72;101017.53;5042153;28;20048;-72
2023/05/03 07:33:53;;;;;;;6.53;2.50;;;;;;;9.72;85.65;100779.44;5045907;28;20025;-71
2023/05/03 07:36:18;;;;;;;5.97;2.07;;;;;;;9.40;86.86;100843.16;5073617;28;20442;-71
2023/05/03 07:38:44;;;;;;;12.10;2.57;;;;;;;9.37;86.11;100792.84;5049391;28;20507;-72
2023/05/03 07:41:09;;;;;;;9.30;2.33;;;;;;;9.21;86.18;100789.03;5052383;28;20064;-71
2023/05/03 07:43:34;;;;;;;6.90;2.00;;;;;;;9.70;86.03;100895.22;5035104;28;20033;-68
2023/05/03 07:46:00;;;;;;;5.03;2.10;;;;;;;9.73;86.74;100957.06;5053396;28;20036;-71
2023/05/03 07:48:25;;;;;;;12.67;2.20;;;;;;;10.45;86.71;101138.53;5035853;28;20044;-71
2023/05/03 07:50:51;;;;;;;11.65;2.60;;;;;;;10.78;83.36;100821.03;5052114;28;20033;-72
2023/05/03 07:53:16;;;;;;;7.33;2.00;;;;;;;11.95;82.23;100990.41;5052850;28;20124;-73
2023/05/03 07:55:41;;;;;;;9.90;1.83;;;;;;;11.53;81.11;100723.91;5052125;28;20037;-72
2023/05/03 07:58:07;;;;;;;7.10;1.73;;;;;;;10.85;80.43;100546.97;5068232;28;20048;-70
2023/05/03 08:00:33;;;;;;;7.63;2.20;;;;;;;10.34;80.39;100424.38;5035434;28;20047;-73
2023/05/03 08:02:58;;;;;;;8.10;1.90;;;;;;;9.66;79.54;100200.78;5051513;28;20028;-72
2023/05/03 08:05:24;;;;;;;4.07;1.77;;;;;;;9.71;81.40;100460.50;5051798;28;20040;-70
2023/05/03 08:07:49;;;;;;;10.73;1.50;;;;;;;9.50;80.54;100340.22;5051898;28;20132;-71
2023/05/03 08:10:15;;;;;;;19.43;2.57;;;;;;;9.52;80.42;100371.03;5051776;28;20382;-72
2023/05/03 08:12:40;;;;;;;9.43;2.00;;;;;;;10.41;82.43;100878.25;5052643;28;20762;-71
2023/05/03 08:15:07;;;;;;;10.82;2.60;;;;;;;11.03;79.79;100688.38;5051314;28;20041;-71
2023/05/03 08:17:40;;;;;;;9.90;1.90;;;;;;;10.70;77.72;100356.41;5051825;28;20033;-72
2023/05/03 08:20:07;;;;;;;11.75;2.40;;;;;;;10.50;78.57;100414.69;5051538;28;20036;-72
2023/05/03 08:22:32;;;;;;;9.60;3.08;;;;;;;10.27;79.10;100443.88;5052278;28;20033;-72
2023/05/03 08:24:58;;;;;;;10.33;2.20;;;;;;;10.18;79.70;100531.06;5051428;28;20037;-70
2023/05/03 08:27:27;;;;;;;9.05;1.95;;;;;;;10.72;78.28;100550.16;5051699;28;20500;-70
2023/05/03 08:29:52;;;;;;;4.78;1.42;;;;;;;12.04;76.66;100679.81;5052725;28;20489;-72
2023/05/03 08:32:19;;;;;;;10.10;2.10;;;;;;;11.60;74.95;100337.19;5052325;28;20121;-71
2023/05/03 08:34:44;;;;;;;7.30;1.75;;;;;;;11.16;75.56;100289.72;5051382;28;20037;-72
2023/05/03 08:37:10;;;;;;;5.00;2.23;;;;;;;11.23;75.52;100343.28;5051660;28;20091;-69
2023/05/03 08:39:35;;;;;;;6.33;1.97;;;;;;;10.26;74.79;100042.03;5052691;28;20041;-72
2023/05/03 08:42:06;;;;;;;8.80;1.83;;;;;;;10.37;75.90;100241.75;5050876;28;20075;-72
2023/05/03 08:44:35;;;;;;;6.75;1.80;;;;;;;10.56;75.69;100310.75;5051453;28;20052;-72
2023/05/03 08:47:03;;;;;;;8.50;1.88;;;;;;;11.94;76.19;100738.06;5034515;28;20727;-72
2023/05/03 08:49:30;;;;;;;8.05;2.00;;;;;;;13.10;72.71;100624.72;5051059;28;20545;-73
2023/05/03 08:51:55;;;;;;;;;;;;;;;12.63;70.72;100127.63;5043824;28;20028;-72
2023/05/03 08:54:20;;;;;;;;;;;;;;;12.16;72.35;100270.00;5034633;28;20291;-72
2023/05/03 08:56:46;;;;;;;12.90;1.83;;;;;;;11.45;70.88;99818.59;5067409;28;19920;-72
2023/05/03 08:59:12;;;;;;;8.77;2.40;;;;;;;11.24;72.20;100025.16;5047055;28;20064;-73
2023/05/03 09:01:40;;;;;;;6.70;2.10;;;;;;;11.79;73.38;100382.16;5048167;28;20442;-73
2023/05/03 09:04:07;;;;;;;6.30;1.67;;;;;;;11.45;72.31;100143.84;5051449;28;20037;-72
2023/05/03 09:06:33;;;;;;;5.35;1.75;;;;;;;11.49;72.35;100202.09;5051997;28;20064;-72
2023/05/03 09:08:59;;;;;;;;;;;;;;;10.99;71.56;99985.34;5050893;28;20526;-71
2023/05/03 09:11:29;;;;;;;8.85;1.55;;;;;;;10.60;71.14;99792.56;5034230;28;19931;-72
2023/05/03 09:14:12;;;;;;;10.77;2.03;;;;;;;10.73;72.81;100113.09;5049940;28;20095;-72
2023/05/03 09:16:40;;;;;;;6.43;1.55;;;;;;;10.91;72.45;100142.16;5050730;28;20044;-72
2023/05/03 09:19:10;;;;;;;10.68;2.17;;;;;;;10.57;72.91;100109.53;5050468;28;20032;-72
2023/05/03 09:21:36;;;;;;;12.02;1.85;;;;;;;10.66;73.21;100186.91;5050425;28;20067;-72
2023/05/03 09:24:11;;;;;;;5.03;2.17;;;;;;;10.84;72.81;100195.47;5066381;28;20415;-72
2023/05/03 09:26:37;;;;;;;9.88;2.63;;;;;;;10.69;74.02;100282.66;5051607;28;20044;-72
2023/05/03 09:29:03;;;;;;;7.70;1.95;;;;;;;10.57;74.35;100328.41;5051207;28;20040;-72
2023/05/03 09:31:31;;;;;;;5.03;1.50;;;;;;;10.97;75.48;100600.88;5050232;28;20025;-70
2023/05/03 09:33:57;;;;;;;11.50;2.50;;;;;;;11.11;75.01;100592.16;5051265;28;20056;-71
2023/05/03 09:36:23;;;;;;;7.53;1.80;;;;;;;10.87;73.60;100299.25;5047533;28;20472;-72
2023/05/03 09:38:50;;;;;;;14.27;2.65;;;;;;;11.25;73.44;100427.63;5050042;28;20036;-72
2023/05/03 09:41:25;;;;;;;7.47;1.40;;;;;;;11.74;72.41;100459.41;5050049;28;20044;-72
2023/05/03 09:43:53;;;;;;;9.57;2.42;;;;;;;11.72;71.37;100295.63;5050629;28;20143;-71
2023/05/03 09:46:19;;;;;;;6.38;2.00;;;;;;;11.19;70.87;100060.44;5050039;28;20040;-71
2023/05/03 09:48:44;;;;;;;4.70;1.67;;;;;;;12.21;71.83;100541.41;5058172;28;20083;-71
2023/05/03 09:51:11;;;;;;;6.00;1.97;;;;;;;11.96;70.15;100168.03;5046082;28;20052;-72
2023/05/03 09:53:38;;;;;;;9.45;3.08;;;;;;;11.92;70.70;100274.59;5045084;28;20065;-71
2023/05/03 09:56:12;;;;;;;5.93;1.40;;;;;;;11.32;71.62;100176.53;5049837;28;20029;-72
2023/05/03 09:58:38;;;;;;;8.43;2.17;;;;;;;11.79;72.09;100453.53;5049774;28;20028;-72
2023/05/03 10:01:04;;;;;;;4.22;1.63;;;;;;;11.49;70.74;100135.25;5049599;28;20033;-72
2023/05/03 10:03:49;;;;;;;9.25;2.00;;;;;;;11.43;72.96;100456.78;5048082;28;20052;-72
2023/05/03 10:06:23;;;;;;;8.82;2.58;;;;;;;11.46;72.26;100370.03;5042225;28;20033;-72
2023/05/03 10:08:59;;;;;;;7.03;1.83;;;;;;;11.23;72.22;100316.56;5050765;28;20120;-73
2023/05/03 10:11:26;;;;;;;;;;;;;;;11.36;71.34;100247.34;5033351;28;20037;-73
2023/05/03 10:13:52;;;;;;;10.18;3.10;;;;;;;11.65;72.81;100572.78;5049569;28;20448;-72
2023/05/03 10:16:25;;;;;;;11.90;2.15;;;;;;;11.95;71.44;100474.03;5049560;28;20028;-71
2023/05/03 10:18:58;;;;;;;6.18;1.80;;;;;;;11.93;68.33;100050.72;5050645;28;20132;-73
2023/05/03 10:21:43;;;;;;;8.52;1.92;;;;;;;11.62;67.45;99797.78;5033039;28;20097;-72
2023/05/03 10:24:12;;;;;;;;;;;;;;;12.15;66.95;99942.72;5049119;28;20032;-72
2023/05/03 10:26:46;;;;;;;5.50;1.80;;;;;;;12.35;66.59;99982.19;5050483;28;19912;-73
2023/05/03 10:29:47;;;;;;;5.07;1.23;;;;;;;12.86;63.78;99724.81;5042985;28;20043;-71
2023/05/03 10:32:33;;;;;;;6.03;2.10;;;;;;;12.52;61.57;99311.59;5048571;28;20041;-72
2023/05/03 10:35:05;;;;;;;6.90;1.90;;;;;;;12.13;62.13;99259.81;5048972;28;20056;-72
2023/05/03 10:37:33;;;;;;;9.43;1.40;;;;;;;11.92;63.04;99401.81;5050378;28;20490;-72
2023/05/03 10:40:12;;;;;;;6.25;1.83;;;;;;;12.03;63.13;99492.97;5049110;28;20396;-73
2023/05/03 10:42:39;;;;;;;5.22;1.42;;;;;;;12.31;62.68;99500.00;5065432;28;20037;-72
2023/05/03 10:45:07;;;;;;;8.23;1.75;;;;;;;11.74;64.15;99554.75;5049637;28;20055;-72
2023/05/03 10:47:33;;;;;;;6.00;1.98;;;;;;;11.54;64.21;99533.25;5050342;28;20071;-72
2023/05/03 10:50:13;;;;;;;16.60;1.98;;;;;;;11.87;65.89;99901.66;5048738;28;20091;-72
2023/05/03 10:52:39;;;;;;;7.53;1.40;;;;;;;11.99;66.56;100088.25;5049632;28;20029;-72
2023/05/03 10:55:17;;;;;;;4.27;1.73;;;;;;;11.80;64.73;99720.59;5049836;28;20017;-72
2023/05/03 10:57:45;;;;;;;8.43;2.13;;;;;;;11.96;65.37;99892.50;5048600;28;20044;-69
2023/05/03 11:00:12;;;;;;;7.13;1.58;;;;;;;11.52;64.17;99541.50;5050052;28;20033;-71
2023/05/03 11:03:08;;;;;;;5.13;1.55;;;;;;;12.22;65.59;100034.59;5048234;28;20043;-72
2023/05/03 11:05:34;;;;;;;4.40;2.10;;;;;;;13.73;62.59;100117.38;5043749;28;20055;-70
2023/05/03 11:08:07;;;;;;;;;;;;;;;14.87;60.51;100123.94;5065373;28;20070;-72
2023/05/03 11:10:32;;;;;;;7.22;1.30;;;;;;;14.41;59.00;99636.75;5049887;28;20272;-72
2023/05/03 11:12:58;;;;;;;9.50;1.87;;;;;;;14.07;58.34;99461.66;5047481;28;20032;-72
2023/05/03 11:15:23;;;;;;;5.03;1.40;;;;;;;13.18;59.35;99315.88;5049831;28;20492;-72
2023/05/03 11:17:49;;;;;;;6.80;1.70;;;;;;;13.51;59.25;99444.41;5048345;28;20405;-71
2023/05/03 11:20:15;;;;;;;8.88;2.17;;;;;;;13.57;59.77;99626.94;5049474;28;20025;-72
2023/05/03 11:22:40;;;;;;;8.57;1.63;;;;;;;14.19;59.04;99714.09;5040849;28;20072;-72
2023/05/03 11:25:06;;;;;;;8.68;2.35;;;;;;;14.89;57.57;99757.22;5031504;28;20128;-72
2023/05/03 11:27:32;;;;;;;2.00;1.58;;;;;;;14.39;56.25;99331.91;5049557;28;20064;-72